Tindal Airport
YPTN : now visible

Airfield :











YOU CAN JOIN US ON...

 
LOGIN :

Register | Disclaimer

   EN    FR    IT 

 









Legend :    VFR   Marginal VFR   IFR   Intensive IFR   Very Intensive IFR
Visi :
Ceiling :
>= 8 km
>= 3000ft
5 to 8 km
1000 to 3000 ft
1500m to 5 km
500 to 1000 ft
800 to 1500m
200 to 500 ft
< 800m
< 200 ft
Symbols :   Thunderstorms  Fog  Heavy snow  Heavy precipitations  Wind > 20 kt






- Airport Elevation : 443 ft
- IATA code : KTR


YPTN - Tindal

CURRENT METAR :
  • 271400Z AUTO 04010KT 9999 // SCT039 BKN071 OVC115 26/23 Q1006

EXPIRED METARs :
  • 271330Z AUTO 04009KT 9999 // SCT040 BKN060 OVC098 26/24 Q1006
  • 271300Z AUTO 05011KT 9999 -SHRA SCT048 BKN052 OVC063 26/24 Q1006
  • 271230Z AUTO 05011KT 9999 -SHRA SCT041 BKN054 OVC079 26/24 Q1005
  • 271200Z AUTO 04010KT 9999 // SCT044 SCT052 OVC066 27/24 Q1005
  • 271130Z AUTO 06010KT 9999 -RA SCT046 SCT068 BKN100 26/24 Q1005

TAF AMD TAF YPTN
Valid from the 27 at 10:00 until the 28 at 12:00 UTC


271101Z 2710/2812 05010KT 8000 -RA BKN012
FM280100 02014KT 9999 -RA SCT015 BKN030
FM280500 03014KT 9999 SCT030
TEMPO 2710/2800 2000 SHRA BKN010 INTER 2800/2812 4000 SHRA BKN010
PROB30
TEMPO 2712/2812 VRB20G35KT 1000 TSRA BKN005 SCT020CB



MET'MAP, your aeronautical weather chart ! - Copyright ORBIFLY December 2007 - Disclaimer

ORBIFLY MET'MAP TEAM :

Programming & Development : Alexandra Zaïnal
Concept & original design : Baudouin d'Aumeries
Assistance for programming : Marc-Olivier Méhu
Technical & hardware support : Manuel Goepfert

Contact : metmap@orbifly.com




SOURCES & CREDITS :

   NOAA       Earth
Advisory